sensor_id;sensor_type;location;lat;lon;timestamp;P1;durP1;ratioP1;P2;durP2;ratioP2
42094;SDS011;27753;55.724;37.612;2022-09-06T00:00:11;1.98;;;1.10;;
42094;SDS011;27753;55.724;37.612;2022-09-06T00:02:38;1.35;;;0.82;;
42094;SDS011;27753;55.724;37.612;2022-09-06T00:05:04;2.08;;;1.27;;
42094;SDS011;27753;55.724;37.612;2022-09-06T00:07:31;1.92;;;1.13;;
42094;SDS011;27753;55.724;37.612;2022-09-06T00:09:57;2.20;;;1.27;;
42094;SDS011;27753;55.724;37.612;2022-09-06T00:12:23;8.23;;;4.35;;
42094;SDS011;27753;55.724;37.612;2022-09-06T00:14:50;1.70;;;1.27;;
42094;SDS011;27753;55.724;37.612;2022-09-06T00:17:16;1.63;;;1.40;;
42094;SDS011;27753;55.724;37.612;2022-09-06T00:19:43;1.90;;;1.25;;
42094;SDS011;27753;55.724;37.612;2022-09-06T00:22:09;3.80;;;1.48;;
42094;SDS011;27753;55.724;37.612;2022-09-06T00:24:35;1.83;;;1.08;;
42094;SDS011;27753;55.724;37.612;2022-09-06T00:27:01;4.07;;;1.20;;
42094;SDS011;27753;55.724;37.612;2022-09-06T00:29:27;1.77;;;1.38;;
42094;SDS011;27753;55.724;37.612;2022-09-06T00:31:54;1.48;;;1.10;;
42094;SDS011;27753;55.724;37.612;2022-09-06T00:34:20;1.58;;;0.88;;
42094;SDS011;27753;55.724;37.612;2022-09-06T00:36:47;1.70;;;1.20;;
42094;SDS011;27753;55.724;37.612;2022-09-06T00:39:13;6.68;;;3.42;;
42094;SDS011;27753;55.724;37.612;2022-09-06T00:41:39;7.35;;;2.97;;
42094;SDS011;27753;55.724;37.612;2022-09-06T00:44:06;2.08;;;1.40;;
42094;SDS011;27753;55.724;37.612;2022-09-06T00:46:32;2.28;;;1.25;;
42094;SDS011;27753;55.724;37.612;2022-09-06T00:49:04;1.52;;;1.10;;
42094;SDS011;27753;55.724;37.612;2022-09-06T00:51:31;1.92;;;1.40;;
42094;SDS011;27753;55.724;37.612;2022-09-06T00:54:01;2.28;;;1.38;;
42094;SDS011;27753;55.724;37.612;2022-09-06T00:56:28;1.80;;;1.70;;
42094;SDS011;27753;55.724;37.612;2022-09-06T00:58:55;1.65;;;1.33;;
42094;SDS011;27753;55.724;37.612;2022-09-06T01:01:21;2.45;;;1.50;;
42094;SDS011;27753;55.724;37.612;2022-09-06T01:03:47;3.22;;;1.55;;
42094;SDS011;27753;55.724;37.612;2022-09-06T01:14:28;1.60;;;1.30;;
42094;SDS011;27753;55.724;37.612;2022-09-06T01:29:38;1.88;;;1.40;;
42094;SDS011;27753;55.724;37.612;2022-09-06T01:32:19;2.83;;;1.50;;
42094;SDS011;27753;55.724;37.612;2022-09-06T01:34:53;2.05;;;1.20;;
42094;SDS011;27753;55.724;37.612;2022-09-06T01:37:23;2.10;;;1.38;;
42094;SDS011;27753;55.724;37.612;2022-09-06T01:39:49;2.17;;;1.40;;
42094;SDS011;27753;55.724;37.612;2022-09-06T01:44:46;1.52;;;1.33;;
42094;SDS011;27753;55.724;37.612;2022-09-06T01:56:06;2.47;;;1.53;;
42094;SDS011;27753;55.724;37.612;2022-09-06T01:59:00;2.50;;;1.38;;
42094;SDS011;27753;55.724;37.612;2022-09-06T02:06:51;1.48;;;1.30;;
42094;SDS011;27753;55.724;37.612;2022-09-06T02:09:26;1.65;;;1.55;;
42094;SDS011;27753;55.724;37.612;2022-09-06T02:11:58;2.97;;;1.88;;
42094;SDS011;27753;55.724;37.612;2022-09-06T02:14:27;3.13;;;2.20;;
42094;SDS011;27753;55.724;37.612;2022-09-06T02:17:19;3.65;;;2.08;;
42094;SDS011;27753;55.724;37.612;2022-09-06T02:19:53;2.80;;;2.03;;
42094;SDS011;27753;55.724;37.612;2022-09-06T02:22:27;3.65;;;2.47;;
42094;SDS011;27753;55.724;37.612;2022-09-06T02:24:55;3.28;;;2.60;;
42094;SDS011;27753;55.724;37.612;2022-09-06T02:27:24;2.60;;;2.25;;
42094;SDS011;27753;55.724;37.612;2022-09-06T02:29:50;2.65;;;2.17;;
42094;SDS011;27753;55.724;37.612;2022-09-06T02:32:18;2.95;;;2.47;;
42094;SDS011;27753;55.724;37.612;2022-09-06T02:34:48;3.53;;;2.00;;
42094;SDS011;27753;55.724;37.612;2022-09-06T02:37:16;3.60;;;2.63;;
42094;SDS011;27753;55.724;37.612;2022-09-06T02:39:43;3.38;;;2.22;;
42094;SDS011;27753;55.724;37.612;2022-09-06T02:42:09;2.95;;;2.20;;
42094;SDS011;27753;55.724;37.612;2022-09-06T02:44:37;5.13;;;2.67;;
42094;SDS011;27753;55.724;37.612;2022-09-06T02:47:03;3.85;;;2.03;;
42094;SDS011;27753;55.724;37.612;2022-09-06T02:49:29;3.57;;;2.23;;
42094;SDS011;27753;55.724;37.612;2022-09-06T02:51:55;2.95;;;2.25;;
42094;SDS011;27753;55.724;37.612;2022-09-06T02:54:21;4.07;;;3.03;;
42094;SDS011;27753;55.724;37.612;2022-09-06T02:56:48;2.60;;;2.38;;
42094;SDS011;27753;55.724;37.612;2022-09-06T02:59:13;2.80;;;2.10;;
42094;SDS011;27753;55.724;37.612;2022-09-06T03:01:40;2.60;;;2.35;;
42094;SDS011;27753;55.724;37.612;2022-09-06T03:04:06;3.17;;;2.50;;
42094;SDS011;27753;55.724;37.612;2022-09-06T03:06:32;5.43;;;2.85;;
42094;SDS011;27753;55.724;37.612;2022-09-06T03:08:58;4.05;;;2.95;;
42094;SDS011;27753;55.724;37.612;2022-09-06T03:11:24;2.33;;;2.05;;
42094;SDS011;27753;55.724;37.612;2022-09-06T03:13:51;4.03;;;2.40;;
42094;SDS011;27753;55.724;37.612;2022-09-06T03:16:17;3.45;;;2.33;;
42094;SDS011;27753;55.724;37.612;2022-09-06T03:18:43;2.75;;;2.00;;
42094;SDS011;27753;55.724;37.612;2022-09-06T03:21:10;3.58;;;2.42;;
42094;SDS011;27753;55.724;37.612;2022-09-06T03:23:36;4.40;;;2.38;;
42094;SDS011;27753;55.724;37.612;2022-09-06T03:26:04;3.92;;;2.63;;
42094;SDS011;27753;55.724;37.612;2022-09-06T03:28:33;2.63;;;2.08;;
42094;SDS011;27753;55.724;37.612;2022-09-06T03:31:02;4.10;;;2.40;;
42094;SDS011;27753;55.724;37.612;2022-09-06T03:33:28;3.28;;;2.53;;
42094;SDS011;27753;55.724;37.612;2022-09-06T03:35:56;3.38;;;2.55;;
42094;SDS011;27753;55.724;37.612;2022-09-06T03:38:24;5.18;;;2.75;;
42094;SDS011;27753;55.724;37.612;2022-09-06T03:40:51;5.82;;;2.67;;
42094;SDS011;27753;55.724;37.612;2022-09-06T03:43:18;2.90;;;2.30;;
42094;SDS011;27753;55.724;37.612;2022-09-06T03:45:45;3.13;;;2.28;;
42094;SDS011;27753;55.724;37.612;2022-09-06T03:48:15;2.95;;;2.25;;
42094;SDS011;27753;55.724;37.612;2022-09-06T03:50:45;3.60;;;2.65;;
42094;SDS011;27753;55.724;37.612;2022-09-06T03:53:12;4.50;;;2.63;;
42094;SDS011;27753;55.724;37.612;2022-09-06T03:55:39;2.83;;;2.15;;
42094;SDS011;27753;55.724;37.612;2022-09-06T03:58:08;2.60;;;2.35;;
42094;SDS011;27753;55.724;37.612;2022-09-06T04:00:33;4.22;;;1.70;;
42094;SDS011;27753;55.724;37.612;2022-09-06T04:02:59;2.53;;;1.83;;
42094;SDS011;27753;55.724;37.612;2022-09-06T04:05:25;4.88;;;2.22;;
42094;SDS011;27753;55.724;37.612;2022-09-06T04:07:51;2.95;;;1.85;;
42094;SDS011;27753;55.724;37.612;2022-09-06T04:10:17;2.50;;;1.98;;
42094;SDS011;27753;55.724;37.612;2022-09-06T04:12:43;2.00;;;1.48;;
42094;SDS011;27753;55.724;37.612;2022-09-06T04:15:09;2.40;;;1.67;;
42094;SDS011;27753;55.724;37.612;2022-09-06T04:17:35;4.38;;;2.10;;
42094;SDS011;27753;55.724;37.612;2022-09-06T04:20:01;2.92;;;1.75;;
42094;SDS011;27753;55.724;37.612;2022-09-06T04:22:28;2.80;;;1.90;;
42094;SDS011;27753;55.724;37.612;2022-09-06T04:27:22;5.10;;;3.00;;
42094;SDS011;27753;55.724;37.612;2022-09-06T04:29:48;4.57;;;2.45;;
42094;SDS011;27753;55.724;37.612;2022-09-06T04:32:13;6.85;;;2.28;;
42094;SDS011;27753;55.724;37.612;2022-09-06T04:34:39;7.45;;;2.28;;
42094;SDS011;27753;55.724;37.612;2022-09-06T04:37:06;3.70;;;2.00;;
42094;SDS011;27753;55.724;37.612;2022-09-06T04:39:31;2.20;;;1.80;;
42094;SDS011;27753;55.724;37.612;2022-09-06T04:41:57;2.88;;;1.95;;
42094;SDS011;27753;55.724;37.612;2022-09-06T04:44:23;1.88;;;1.50;;
42094;SDS011;27753;55.724;37.612;2022-09-06T04:46:49;2.70;;;1.65;;
42094;SDS011;27753;55.724;37.612;2022-09-06T04:49:15;3.08;;;1.50;;
42094;SDS011;27753;55.724;37.612;2022-09-06T04:51:40;1.88;;;1.45;;
42094;SDS011;27753;55.724;37.612;2022-09-06T04:54:06;2.05;;;1.73;;
42094;SDS011;27753;55.724;37.612;2022-09-06T04:56:32;1.88;;;1.42;;
42094;SDS011;27753;55.724;37.612;2022-09-06T04:58:58;2.35;;;1.80;;
42094;SDS011;27753;55.724;37.612;2022-09-06T05:01:24;1.50;;;1.35;;
42094;SDS011;27753;55.724;37.612;2022-09-06T05:03:52;4.53;;;2.07;;
42094;SDS011;27753;55.724;37.612;2022-09-06T05:06:19;2.13;;;1.67;;
42094;SDS011;27753;55.724;37.612;2022-09-06T05:08:46;1.98;;;1.77;;
42094;SDS011;27753;55.724;37.612;2022-09-06T05:11:14;4.75;;;2.10;;
42094;SDS011;27753;55.724;37.612;2022-09-06T05:13:40;1.85;;;1.35;;
42094;SDS011;27753;55.724;37.612;2022-09-06T05:16:07;2.60;;;1.63;;
42094;SDS011;27753;55.724;37.612;2022-09-06T05:18:34;2.42;;;1.42;;
42094;SDS011;27753;55.724;37.612;2022-09-06T05:21:00;2.72;;;1.52;;
42094;SDS011;27753;55.724;37.612;2022-09-06T05:23:26;5.72;;;1.80;;
42094;SDS011;27753;55.724;37.612;2022-09-06T05:25:52;2.15;;;1.60;;
42094;SDS011;27753;55.724;37.612;2022-09-06T05:28:18;4.32;;;1.63;;
42094;SDS011;27753;55.724;37.612;2022-09-06T05:30:45;1.90;;;0.95;;
42094;SDS011;27753;55.724;37.612;2022-09-06T05:33:12;2.17;;;1.35;;
42094;SDS011;27753;55.724;37.612;2022-09-06T05:35:42;2.00;;;1.42;;
42094;SDS011;27753;55.724;37.612;2022-09-06T05:38:08;3.05;;;1.25;;
42094;SDS011;27753;55.724;37.612;2022-09-06T05:40:34;3.20;;;1.42;;
42094;SDS011;27753;55.724;37.612;2022-09-06T05:43:00;3.85;;;1.80;;
42094;SDS011;27753;55.724;37.612;2022-09-06T05:45:26;2.03;;;1.02;;
42094;SDS011;27753;55.724;37.612;2022-09-06T05:47:52;2.67;;;1.52;;
42094;SDS011;27753;55.724;37.612;2022-09-06T05:50:18;2.00;;;1.38;;
42094;SDS011;27753;55.724;37.612;2022-09-06T05:52:44;1.80;;;1.30;;
42094;SDS011;27753;55.724;37.612;2022-09-06T05:55:09;2.08;;;1.20;;
42094;SDS011;27753;55.724;37.612;2022-09-06T05:57:37;4.13;;;1.27;;
42094;SDS011;27753;55.724;37.612;2022-09-06T06:00:03;2.38;;;1.02;;
42094;SDS011;27753;55.724;37.612;2022-09-06T06:02:32;1.88;;;1.33;;
42094;SDS011;27753;55.724;37.612;2022-09-06T06:04:57;1.98;;;1.30;;
42094;SDS011;27753;55.724;37.612;2022-09-06T06:07:23;3.67;;;1.55;;
42094;SDS011;27753;55.724;37.612;2022-09-06T06:09:49;2.22;;;1.30;;
42094;SDS011;27753;55.724;37.612;2022-09-06T06:12:15;3.30;;;1.73;;
42094;SDS011;27753;55.724;37.612;2022-09-06T06:14:41;1.90;;;1.52;;
42094;SDS011;27753;55.724;37.612;2022-09-06T06:17:09;2.40;;;2.08;;
42094;SDS011;27753;55.724;37.612;2022-09-06T06:19:35;3.88;;;2.30;;
42094;SDS011;27753;55.724;37.612;2022-09-06T06:22:01;3.92;;;2.38;;
42094;SDS011;27753;55.724;37.612;2022-09-06T06:24:27;3.35;;;2.53;;
42094;SDS011;27753;55.724;37.612;2022-09-06T06:26:53;4.50;;;2.70;;
42094;SDS011;27753;55.724;37.612;2022-09-06T06:29:19;3.88;;;2.55;;
42094;SDS011;27753;55.724;37.612;2022-09-06T06:31:45;5.30;;;2.47;;
42094;SDS011;27753;55.724;37.612;2022-09-06T06:34:10;7.40;;;3.10;;
42094;SDS011;27753;55.724;37.612;2022-09-06T06:36:36;4.40;;;2.90;;
42094;SDS011;27753;55.724;37.612;2022-09-06T06:39:03;3.65;;;2.78;;
42094;SDS011;27753;55.724;37.612;2022-09-06T06:41:31;4.60;;;3.53;;
42094;SDS011;27753;55.724;37.612;2022-09-06T06:43:58;4.50;;;3.78;;
42094;SDS011;27753;55.724;37.612;2022-09-06T06:46:31;5.32;;;3.17;;
42094;SDS011;27753;55.724;37.612;2022-09-06T06:48:59;5.72;;;3.30;;
42094;SDS011;27753;55.724;37.612;2022-09-06T06:51:26;3.33;;;2.92;;
42094;SDS011;27753;55.724;37.612;2022-09-06T06:53:54;5.28;;;2.92;;
42094;SDS011;27753;55.724;37.612;2022-09-06T06:56:27;5.70;;;2.78;;
42094;SDS011;27753;55.724;37.612;2022-09-06T06:58:55;7.15;;;2.83;;
42094;SDS011;27753;55.724;37.612;2022-09-06T07:01:23;5.13;;;3.35;;
42094;SDS011;27753;55.724;37.612;2022-09-06T07:03:50;5.82;;;3.08;;
42094;SDS011;27753;55.724;37.612;2022-09-06T07:06:17;4.20;;;3.30;;
42094;SDS011;27753;55.724;37.612;2022-09-06T07:08:44;5.00;;;2.58;;
42094;SDS011;27753;55.724;37.612;2022-09-06T07:11:11;4.28;;;2.80;;
42094;SDS011;27753;55.724;37.612;2022-09-06T07:16:05;5.03;;;3.22;;
42094;SDS011;27753;55.724;37.612;2022-09-06T07:18:34;4.88;;;3.08;;
42094;SDS011;27753;55.724;37.612;2022-09-06T07:21:02;3.65;;;2.40;;
42094;SDS011;27753;55.724;37.612;2022-09-06T07:23:29;4.30;;;2.60;;
42094;SDS011;27753;55.724;37.612;2022-09-06T07:25:59;2.53;;;2.33;;
42094;SDS011;27753;55.724;37.612;2022-09-06T07:28:26;4.90;;;3.08;;
42094;SDS011;27753;55.724;37.612;2022-09-06T07:30:56;5.68;;;3.55;;
42094;SDS011;27753;55.724;37.612;2022-09-06T07:33:23;3.97;;;3.08;;
42094;SDS011;27753;55.724;37.612;2022-09-06T07:35:59;5.47;;;2.50;;
42094;SDS011;27753;55.724;37.612;2022-09-06T07:38:31;3.20;;;2.55;;
42094;SDS011;27753;55.724;37.612;2022-09-06T07:40:59;3.28;;;2.83;;
42094;SDS011;27753;55.724;37.612;2022-09-06T07:43:25;5.35;;;2.30;;
42094;SDS011;27753;55.724;37.612;2022-09-06T07:46:08;5.30;;;3.00;;
42094;SDS011;27753;55.724;37.612;2022-09-06T07:48:35;6.65;;;2.53;;
42094;SDS011;27753;55.724;37.612;2022-09-06T07:51:06;2.50;;;2.15;;
42094;SDS011;27753;55.724;37.612;2022-09-06T07:53:33;4.10;;;2.55;;
42094;SDS011;27753;55.724;37.612;2022-09-06T07:55:59;7.23;;;2.77;;
42094;SDS011;27753;55.724;37.612;2022-09-06T07:58:27;1.88;;;1.60;;
42094;SDS011;27753;55.724;37.612;2022-09-06T08:00:53;6.43;;;2.00;;
42094;SDS011;27753;55.724;37.612;2022-09-06T08:03:19;5.22;;;2.53;;
42094;SDS011;27753;55.724;37.612;2022-09-06T08:05:49;2.65;;;1.70;;
42094;SDS011;27753;55.724;37.612;2022-09-06T08:08:15;1.67;;;1.50;;
42094;SDS011;27753;55.724;37.612;2022-09-06T08:10:41;1.98;;;1.63;;
42094;SDS011;27753;55.724;37.612;2022-09-06T08:13:08;3.47;;;2.10;;
42094;SDS011;27753;55.724;37.612;2022-09-06T08:15:34;3.72;;;1.45;;
42094;SDS011;27753;55.724;37.612;2022-09-06T08:18:00;8.88;;;2.10;;
42094;SDS011;27753;55.724;37.612;2022-09-06T08:20:26;5.85;;;2.80;;
42094;SDS011;27753;55.724;37.612;2022-09-06T08:22:52;5.68;;;2.00;;
42094;SDS011;27753;55.724;37.612;2022-09-06T08:25:20;10.70;;;2.55;;
42094;SDS011;27753;55.724;37.612;2022-09-06T08:27:46;4.53;;;2.03;;
42094;SDS011;27753;55.724;37.612;2022-09-06T08:30:13;4.40;;;1.92;;
42094;SDS011;27753;55.724;37.612;2022-09-06T08:32:39;6.25;;;1.90;;
42094;SDS011;27753;55.724;37.612;2022-09-06T08:37:32;4.68;;;2.00;;
42094;SDS011;27753;55.724;37.612;2022-09-06T08:39:58;2.10;;;1.60;;
42094;SDS011;27753;55.724;37.612;2022-09-06T08:42:25;3.20;;;1.52;;
42094;SDS011;27753;55.724;37.612;2022-09-06T08:44:51;3.22;;;1.92;;
42094;SDS011;27753;55.724;37.612;2022-09-06T08:47:18;2.55;;;1.58;;
42094;SDS011;27753;55.724;37.612;2022-09-06T08:49:46;2.20;;;1.63;;
42094;SDS011;27753;55.724;37.612;2022-09-06T08:59:41;3.05;;;1.15;;
42094;SDS011;27753;55.724;37.612;2022-09-06T09:02:15;3.55;;;1.50;;
42094;SDS011;27753;55.724;37.612;2022-09-06T09:09:48;1.50;;;1.20;;
42094;SDS011;27753;55.724;37.612;2022-09-06T09:12:19;2.08;;;1.55;;
42094;SDS011;27753;55.724;37.612;2022-09-06T09:14:47;5.97;;;1.85;;
42094;SDS011;27753;55.724;37.612;2022-09-06T09:17:18;5.43;;;1.52;;
42094;SDS011;27753;55.724;37.612;2022-09-06T09:19:46;3.00;;;1.30;;
42094;SDS011;27753;55.724;37.612;2022-09-06T09:22:16;1.80;;;1.42;;
42094;SDS011;27753;55.724;37.612;2022-09-06T09:24:43;1.35;;;1.10;;
42094;SDS011;27753;55.724;37.612;2022-09-06T09:27:10;2.10;;;1.33;;
42094;SDS011;27753;55.724;37.612;2022-09-06T09:32:28;3.80;;;1.75;;
42094;SDS011;27753;55.724;37.612;2022-09-06T09:34:59;3.83;;;1.75;;
42094;SDS011;27753;55.724;37.612;2022-09-06T09:37:39;1.70;;;1.35;;
42094;SDS011;27753;55.724;37.612;2022-09-06T09:40:06;3.10;;;1.88;;
42094;SDS011;27753;55.724;37.612;2022-09-06T09:42:38;3.35;;;2.15;;
42094;SDS011;27753;55.724;37.612;2022-09-06T09:45:21;3.90;;;1.70;;
42094;SDS011;27753;55.724;37.612;2022-09-06T09:47:48;4.45;;;1.88;;
42094;SDS011;27753;55.724;37.612;2022-09-06T09:50:27;2.47;;;1.83;;
42094;SDS011;27753;55.724;37.612;2022-09-06T09:52:54;7.53;;;1.80;;
42094;SDS011;27753;55.724;37.612;2022-09-06T09:55:21;2.97;;;1.98;;
42094;SDS011;27753;55.724;37.612;2022-09-06T09:57:48;2.83;;;1.98;;
42094;SDS011;27753;55.724;37.612;2022-09-06T10:00:34;5.78;;;2.20;;
42094;SDS011;27753;55.724;37.612;2022-09-06T10:03:10;3.15;;;2.38;;
42094;SDS011;27753;55.724;37.612;2022-09-06T10:05:37;4.07;;;1.80;;
42094;SDS011;27753;55.724;37.612;2022-09-06T10:08:04;4.60;;;2.17;;
42094;SDS011;27753;55.724;37.612;2022-09-06T10:10:38;1.60;;;1.38;;
42094;SDS011;27753;55.724;37.612;2022-09-06T10:15:41;1.98;;;1.52;;
42094;SDS011;27753;55.724;37.612;2022-09-06T10:18:16;2.00;;;1.53;;
42094;SDS011;27753;55.724;37.612;2022-09-06T10:20:49;2.57;;;1.90;;
42094;SDS011;27753;55.724;37.612;2022-09-06T10:25:45;3.85;;;2.13;;
42094;SDS011;27753;55.724;37.612;2022-09-06T10:28:21;3.63;;;1.60;;
42094;SDS011;27753;55.724;37.612;2022-09-06T10:30:56;3.15;;;1.35;;
42094;SDS011;27753;55.724;37.612;2022-09-06T10:35:50;6.68;;;1.80;;
42094;SDS011;27753;55.724;37.612;2022-09-06T10:40:51;4.00;;;1.50;;
42094;SDS011;27753;55.724;37.612;2022-09-06T10:43:20;3.88;;;1.50;;
42094;SDS011;27753;55.724;37.612;2022-09-06T10:45:58;1.88;;;1.02;;
42094;SDS011;27753;55.724;37.612;2022-09-06T10:48:30;2.13;;;1.33;;
42094;SDS011;27753;55.724;37.612;2022-09-06T10:51:05;2.63;;;1.48;;
42094;SDS011;27753;55.724;37.612;2022-09-06T10:53:37;1.63;;;1.40;;
42094;SDS011;27753;55.724;37.612;2022-09-06T10:58:36;2.75;;;1.70;;
42094;SDS011;27753;55.724;37.612;2022-09-06T11:01:04;2.15;;;1.52;;
42094;SDS011;27753;55.724;37.612;2022-09-06T11:03:34;1.88;;;1.13;;
42094;SDS011;27753;55.724;37.612;2022-09-06T11:06:09;4.43;;;1.48;;
42094;SDS011;27753;55.724;37.612;2022-09-06T11:11:14;2.28;;;1.25;;
42094;SDS011;27753;55.724;37.612;2022-09-06T11:13:41;4.90;;;1.75;;
42094;SDS011;27753;55.724;37.612;2022-09-06T11:16:09;3.05;;;1.80;;
42094;SDS011;27753;55.724;37.612;2022-09-06T11:18:52;4.47;;;2.20;;
42094;SDS011;27753;55.724;37.612;2022-09-06T11:24:03;5.53;;;2.55;;
42094;SDS011;27753;55.724;37.612;2022-09-06T11:29:19;2.22;;;2.03;;
42094;SDS011;27753;55.724;37.612;2022-09-06T11:36:57;6.85;;;2.78;;
42094;SDS011;27753;55.724;37.612;2022-09-06T11:39:41;5.43;;;2.90;;
42094;SDS011;27753;55.724;37.612;2022-09-06T11:47:38;4.55;;;3.13;;
42094;SDS011;27753;55.724;37.612;2022-09-06T11:50:19;4.35;;;3.00;;
42094;SDS011;27753;55.724;37.612;2022-09-06T11:55:45;5.32;;;2.63;;
42094;SDS011;27753;55.724;37.612;2022-09-06T11:58:56;4.70;;;2.78;;
42094;SDS011;27753;55.724;37.612;2022-09-06T12:06:12;3.55;;;2.30;;
42094;SDS011;27753;55.724;37.612;2022-09-06T12:11:19;6.90;;;3.67;;
42094;SDS011;27753;55.724;37.612;2022-09-06T12:16:13;6.07;;;4.03;;
42094;SDS011;27753;55.724;37.612;2022-09-06T12:27:13;1.75;;;1.55;;
42094;SDS011;27753;55.724;37.612;2022-09-06T12:29:48;6.75;;;2.38;;
42094;SDS011;27753;55.724;37.612;2022-09-06T12:32:18;3.40;;;2.17;;
42094;SDS011;27753;55.724;37.612;2022-09-06T12:34:45;4.53;;;2.65;;
42094;SDS011;27753;55.724;37.612;2022-09-06T12:37:11;6.13;;;2.22;;
42094;SDS011;27753;55.724;37.612;2022-09-06T12:39:37;11.25;;;2.78;;
42094;SDS011;27753;55.724;37.612;2022-09-06T12:42:05;3.53;;;2.60;;
42094;SDS011;27753;55.724;37.612;2022-09-06T12:47:00;3.83;;;2.50;;
42094;SDS011;27753;55.724;37.612;2022-09-06T12:49:27;4.50;;;3.08;;
42094;SDS011;27753;55.724;37.612;2022-09-06T12:52:04;6.00;;;3.10;;
42094;SDS011;27753;55.724;37.612;2022-09-06T12:54:31;5.38;;;3.22;;
42094;SDS011;27753;55.724;37.612;2022-09-06T12:57:10;4.60;;;3.20;;
42094;SDS011;27753;55.724;37.612;2022-09-06T12:59:36;7.20;;;3.90;;
42094;SDS011;27753;55.724;37.612;2022-09-06T13:02:07;8.52;;;3.20;;
42094;SDS011;27753;55.724;37.612;2022-09-06T13:07:04;3.78;;;2.95;;
42094;SDS011;27753;55.724;37.612;2022-09-06T13:09:30;5.37;;;3.87;;
42094;SDS011;27753;55.724;37.612;2022-09-06T13:12:00;4.95;;;3.70;;
42094;SDS011;27753;55.724;37.612;2022-09-06T13:14:28;9.40;;;3.30;;
42094;SDS011;27753;55.724;37.612;2022-09-06T13:16:54;8.80;;;3.40;;
42094;SDS011;27753;55.724;37.612;2022-09-06T13:19:34;7.50;;;3.30;;
42094;SDS011;27753;55.724;37.612;2022-09-06T13:22:01;3.97;;;2.78;;
42094;SDS011;27753;55.724;37.612;2022-09-06T13:29:53;3.72;;;2.80;;
42094;SDS011;27753;55.724;37.612;2022-09-06T13:32:19;5.07;;;3.15;;
42094;SDS011;27753;55.724;37.612;2022-09-06T13:34:49;6.05;;;3.15;;
42094;SDS011;27753;55.724;37.612;2022-09-06T13:37:21;7.68;;;3.22;;
42094;SDS011;27753;55.724;37.612;2022-09-06T13:39:49;5.65;;;3.63;;
42094;SDS011;27753;55.724;37.612;2022-09-06T13:42:29;4.75;;;3.50;;
42094;SDS011;27753;55.724;37.612;2022-09-06T13:44:58;4.32;;;3.00;;
42094;SDS011;27753;55.724;37.612;2022-09-06T13:47:27;5.82;;;2.78;;
42094;SDS011;27753;55.724;37.612;2022-09-06T13:49:54;3.17;;;2.65;;
42094;SDS011;27753;55.724;37.612;2022-09-06T13:52:20;4.70;;;3.00;;
42094;SDS011;27753;55.724;37.612;2022-09-06T13:54:47;5.23;;;3.57;;
42094;SDS011;27753;55.724;37.612;2022-09-06T13:57:13;7.32;;;3.63;;
42094;SDS011;27753;55.724;37.612;2022-09-06T13:59:39;4.90;;;2.95;;
42094;SDS011;27753;55.724;37.612;2022-09-06T14:04:33;6.75;;;3.55;;
42094;SDS011;27753;55.724;37.612;2022-09-06T14:07:00;5.60;;;3.88;;
42094;SDS011;27753;55.724;37.612;2022-09-06T14:09:26;6.78;;;3.83;;
42094;SDS011;27753;55.724;37.612;2022-09-06T14:11:53;6.63;;;3.03;;
42094;SDS011;27753;55.724;37.612;2022-09-06T14:14:19;4.70;;;3.22;;
42094;SDS011;27753;55.724;37.612;2022-09-06T14:16:46;5.30;;;2.92;;
42094;SDS011;27753;55.724;37.612;2022-09-06T14:19:12;3.85;;;3.38;;
42094;SDS011;27753;55.724;37.612;2022-09-06T14:21:39;6.40;;;3.13;;
42094;SDS011;27753;55.724;37.612;2022-09-06T14:24:05;6.13;;;2.97;;
42094;SDS011;27753;55.724;37.612;2022-09-06T14:26:32;4.85;;;3.60;;
42094;SDS011;27753;55.724;37.612;2022-09-06T14:28:58;3.22;;;2.17;;
42094;SDS011;27753;55.724;37.612;2022-09-06T14:33:53;2.95;;;2.20;;
42094;SDS011;27753;55.724;37.612;2022-09-06T14:36:20;3.72;;;3.08;;
42094;SDS011;27753;55.724;37.612;2022-09-06T14:38:49;5.85;;;2.25;;
42094;SDS011;27753;55.724;37.612;2022-09-06T14:41:16;4.03;;;2.65;;
42094;SDS011;27753;55.724;37.612;2022-09-06T14:43:43;3.97;;;2.38;;
42094;SDS011;27753;55.724;37.612;2022-09-06T14:46:12;5.38;;;3.00;;
42094;SDS011;27753;55.724;37.612;2022-09-06T14:48:41;4.90;;;3.10;;
42094;SDS011;27753;55.724;37.612;2022-09-06T14:51:14;7.32;;;3.10;;
42094;SDS011;27753;55.724;37.612;2022-09-06T14:53:48;6.43;;;2.75;;
42094;SDS011;27753;55.724;37.612;2022-09-06T14:56:15;4.93;;;2.72;;
42094;SDS011;27753;55.724;37.612;2022-09-06T14:58:42;3.58;;;2.78;;
42094;SDS011;27753;55.724;37.612;2022-09-06T15:01:18;7.65;;;3.00;;
42094;SDS011;27753;55.724;37.612;2022-09-06T15:03:46;4.53;;;2.78;;
42094;SDS011;27753;55.724;37.612;2022-09-06T15:06:18;4.68;;;2.55;;
42094;SDS011;27753;55.724;37.612;2022-09-06T15:08:45;3.13;;;2.33;;
42094;SDS011;27753;55.724;37.612;2022-09-06T15:11:12;4.00;;;2.85;;
42094;SDS011;27753;55.724;37.612;2022-09-06T15:13:42;3.67;;;2.33;;
42094;SDS011;27753;55.724;37.612;2022-09-06T15:16:11;3.17;;;2.28;;
42094;SDS011;27753;55.724;37.612;2022-09-06T15:18:37;3.88;;;2.20;;
42094;SDS011;27753;55.724;37.612;2022-09-06T15:21:08;6.57;;;2.38;;
42094;SDS011;27753;55.724;37.612;2022-09-06T15:23:34;4.78;;;2.78;;
42094;SDS011;27753;55.724;37.612;2022-09-06T15:26:03;4.70;;;2.80;;
42094;SDS011;27753;55.724;37.612;2022-09-06T15:30:57;5.60;;;3.75;;
42094;SDS011;27753;55.724;37.612;2022-09-06T15:33:27;7.75;;;3.95;;
42094;SDS011;27753;55.724;37.612;2022-09-06T15:35:53;3.40;;;2.00;;
42094;SDS011;27753;55.724;37.612;2022-09-06T15:38:20;7.75;;;2.92;;
42094;SDS011;27753;55.724;37.612;2022-09-06T15:40:46;8.38;;;2.92;;
42094;SDS011;27753;55.724;37.612;2022-09-06T15:43:12;7.43;;;3.42;;
42094;SDS011;27753;55.724;37.612;2022-09-06T15:45:46;5.10;;;2.58;;
42094;SDS011;27753;55.724;37.612;2022-09-06T15:48:14;4.90;;;4.07;;
42094;SDS011;27753;55.724;37.612;2022-09-06T15:50:40;3.00;;;1.98;;
42094;SDS011;27753;55.724;37.612;2022-09-06T15:53:08;3.95;;;2.72;;
42094;SDS011;27753;55.724;37.612;2022-09-06T15:55:34;2.95;;;2.15;;
42094;SDS011;27753;55.724;37.612;2022-09-06T15:58:21;4.82;;;1.92;;
42094;SDS011;27753;55.724;37.612;2022-09-06T16:01:07;6.37;;;2.80;;
42094;SDS011;27753;55.724;37.612;2022-09-06T16:03:34;6.53;;;2.38;;
42094;SDS011;27753;55.724;37.612;2022-09-06T16:06:06;5.32;;;2.20;;
42094;SDS011;27753;55.724;37.612;2022-09-06T16:08:33;4.15;;;2.70;;
42094;SDS011;27753;55.724;37.612;2022-09-06T16:11:04;3.03;;;1.98;;
42094;SDS011;27753;55.724;37.612;2022-09-06T16:13:32;8.18;;;3.05;;
42094;SDS011;27753;55.724;37.612;2022-09-06T16:16:00;4.60;;;3.05;;
42094;SDS011;27753;55.724;37.612;2022-09-06T16:18:26;5.07;;;2.40;;
42094;SDS011;27753;55.724;37.612;2022-09-06T16:20:52;3.17;;;2.45;;
42094;SDS011;27753;55.724;37.612;2022-09-06T16:23:19;4.35;;;2.90;;
42094;SDS011;27753;55.724;37.612;2022-09-06T16:25:46;4.18;;;2.50;;
42094;SDS011;27753;55.724;37.612;2022-09-06T16:28:13;3.70;;;2.33;;
42094;SDS011;27753;55.724;37.612;2022-09-06T16:30:42;5.85;;;2.70;;
42094;SDS011;27753;55.724;37.612;2022-09-06T16:33:09;2.90;;;1.90;;
42094;SDS011;27753;55.724;37.612;2022-09-06T16:35:41;4.90;;;2.10;;
42094;SDS011;27753;55.724;37.612;2022-09-06T16:38:08;2.50;;;1.90;;
42094;SDS011;27753;55.724;37.612;2022-09-06T16:40:35;3.60;;;2.10;;
42094;SDS011;27753;55.724;37.612;2022-09-06T16:43:02;4.22;;;2.03;;
42094;SDS011;27753;55.724;37.612;2022-09-06T16:45:29;1.83;;;1.38;;
42094;SDS011;27753;55.724;37.612;2022-09-06T16:47:57;1.70;;;1.27;;
42094;SDS011;27753;55.724;37.612;2022-09-06T16:50:23;2.97;;;1.67;;